Time;durP1;ratioP1;P1;durP2;ratioP2;P2;SDS_P1;SDS_P2;PMS_P1;PMS_P2;Temp;Humidity;BMP_temperature;BMP_pressure;BME280_temperature;BME280_humidity;BME280_pressure;Samples;Min_cycle;Max_cycle;Signal;HPM_P1;HPM_P2
2023/03/28 00:01:58;;;;;;;6.07;1.77;;;;;;;-0.44;100.00;98994.78;4160485;28;20090;-71
2023/03/28 00:03:58;;;;;;;6.45;2.05;;;;;;;-0.53;100.00;98996.56;4159914;28;20049;-71
2023/03/28 00:06:00;;;;;;;4.15;2.10;;;;;;;-0.55;100.00;99005.00;4160310;28;20046;-71
2023/03/28 00:08:00;;;;;;;4.90;1.52;;;;;;;-0.48;100.00;99008.19;4159543;28;20502;-71
2023/03/28 00:10:00;;;;;;;6.03;1.77;;;;;;;-0.52;100.00;99006.31;4161033;28;20038;-71
2023/03/28 00:12:01;;;;;;;4.32;2.03;;;;;;;-0.50;100.00;99006.84;4160327;28;20124;-71
2023/03/28 00:14:02;;;;;;;4.85;1.40;;;;;;;-0.51;100.00;99007.94;4160354;28;20061;-71
2023/03/28 00:16:08;;;;;;;6.03;1.83;;;;;;;-0.50;100.00;99002.19;4162347;28;20061;-71
2023/03/28 00:18:11;;;;;;;5.05;1.85;;;;;;;-0.54;100.00;99009.34;4162906;28;20643;-71
2023/03/28 00:20:13;;;;;;;4.05;1.85;;;;;;;-0.56;100.00;99011.53;4164381;28;20048;-71
2023/03/28 00:22:14;;;;;;;6.78;1.65;;;;;;;-0.59;100.00;99007.47;4160094;28;20024;-71
2023/03/28 00:24:17;;;;;;;6.55;1.58;;;;;;;-0.64;100.00;99026.59;4159444;28;20025;-71
2023/03/28 00:26:20;;;;;;;2.53;1.38;;;;;;;-0.64;100.00;99020.34;4160930;28;20713;-71
2023/03/28 00:28:21;;;;;;;4.75;1.52;;;;;;;-0.58;100.00;99017.28;4158785;28;20168;-71
2023/03/28 00:30:21;;;;;;;2.55;1.48;;;;;;;-0.53;100.00;99015.59;4161658;28;20540;-71
2023/03/28 00:32:21;;;;;;;3.75;1.65;;;;;;;-0.64;100.00;99013.00;4165559;28;20053;-71
2023/03/28 00:34:22;;;;;;;4.60;1.60;;;;;;;-0.67;100.00;99020.91;4161545;28;20438;-71
2023/03/28 00:36:25;;;;;;;5.60;2.78;;;;;;;-0.66;100.00;99008.97;4161297;28;20562;-71
2023/03/28 00:38:26;;;;;;;4.78;1.48;;;;;;;-0.70;100.00;99008.72;4159579;28;20061;-71
2023/03/28 00:40:29;;;;;;;3.28;1.33;;;;;;;-0.71;100.00;99014.47;4160918;28;20397;-71
2023/03/28 00:42:30;;;;;;;4.15;1.77;;;;;;;-0.66;100.00;99006.25;4159171;28;20082;-71
2023/03/28 00:44:47;;;;;;;3.17;1.25;;;;;;;-0.64;100.00;99004.84;4161106;28;20073;-71
2023/03/28 00:46:48;;;;;;;7.35;1.80;;;;;;;-0.66;100.00;99017.13;4160074;28;20045;-71
2023/03/28 00:49:20;;;;;;;2.67;1.70;;;;;;;-0.61;100.00;99015.13;4160687;28;20041;-71
2023/03/28 00:51:25;;;;;;;5.07;1.65;;;;;;;-0.68;100.00;99025.53;4174934;28;20064;-70
2023/03/28 00:53:26;;;;;;;5.88;1.67;;;;;;;-0.65;100.00;99029.59;4158995;28;20092;-71
2023/03/28 00:55:36;;;;;;;7.57;1.90;;;;;;;-0.65;100.00;99010.59;4161638;28;20049;-70
2023/03/28 00:57:37;;;;;;;4.22;1.20;;;;;;;-0.60;100.00;99016.75;4159223;28;20049;-71
2023/03/28 00:59:38;;;;;;;6.25;2.78;;;;;;;-0.62;100.00;99012.72;4160613;28;20341;-71
2023/03/28 01:01:38;;;;;;;5.47;1.30;;;;;;;-0.64;100.00;99010.28;4158997;28;20053;-71
2023/03/28 01:03:45;;;;;;;7.05;1.52;;;;;;;-0.63;100.00;99022.78;4159154;28;20044;-70
2023/03/28 01:05:46;;;;;;;6.15;1.50;;;;;;;-0.66;100.00;99006.25;4159572;28;20395;-71
2023/03/28 01:07:52;;;;;;;5.80;1.40;;;;;;;-0.64;100.00;99020.34;4161063;28;20049;-71
2023/03/28 01:09:53;;;;;;;3.47;1.30;;;;;;;-0.60;100.00;99027.63;4159074;28;20292;-70
2023/03/28 01:11:56;;;;;;;8.95;1.40;;;;;;;-0.65;100.00;99026.88;4159233;28;20048;-71
2023/03/28 01:13:59;;;;;;;5.10;1.50;;;;;;;-0.61;100.00;99026.00;4159082;28;20049;-70
2023/03/28 01:16:01;;;;;;;;;;;;;;;-0.65;100.00;99024.16;4160709;28;20049;-70
2023/03/28 01:18:02;;;;;;;5.95;1.42;;;;;;;-0.62;100.00;99023.56;4163408;28;20265;-71
2023/03/28 01:20:28;;;;;;;7.93;1.65;;;;;;;-0.54;100.00;99022.94;4160528;28;20104;-71
2023/03/28 01:22:59;;;;;;;9.40;1.92;;;;;;;-0.50;100.00;99039.44;4144506;28;20054;-70
2023/03/28 01:25:06;;;;;;;8.13;1.67;;;;;;;-0.58;100.00;99028.16;4159683;28;20045;-70
2023/03/28 01:27:22;;;;;;;9.25;2.20;;;;;;;-0.55;100.00;99034.91;4158720;28;20103;-71
2023/03/28 01:29:26;;;;;;;7.57;1.30;;;;;;;-0.50;100.00;99034.00;4161006;28;20474;-70
2023/03/28 01:31:58;;;;;;;5.65;1.50;;;;;;;-0.50;100.00;99034.81;4160256;28;20099;-70
2023/03/28 01:34:26;;;;;;;4.55;1.55;;;;;;;-0.46;100.00;99041.31;4158874;28;20048;-70
2023/03/28 01:36:52;;;;;;;3.83;1.30;;;;;;;-0.43;100.00;99057.03;4160021;28;20053;-71
2023/03/28 01:39:03;;;;;;;7.00;1.98;;;;;;;-0.46;100.00;99045.94;4163760;28;20042;-70
2023/03/28 01:41:37;;;;;;;5.43;1.48;;;;;;;-0.52;100.00;99047.91;4164333;28;20091;-70
2023/03/28 01:43:52;;;;;;;2.92;1.30;;;;;;;-0.59;100.00;99034.66;4148465;28;20045;-71
2023/03/28 01:45:52;;;;;;;3.03;1.23;;;;;;;-0.63;100.00;99044.50;4159532;28;20041;-70
2023/03/28 01:48:10;;;;;;;5.53;1.73;;;;;;;-0.69;100.00;99045.66;4159970;28;20070;-71
2023/03/28 01:50:28;;;;;;;5.80;1.60;;;;;;;-0.69;100.00;99056.53;4158390;28;20065;-71
2023/03/28 01:52:40;;;;;;;4.60;1.50;;;;;;;-0.71;100.00;99058.75;4159395;28;20209;-71
2023/03/28 01:54:57;;;;;;;5.03;1.63;;;;;;;-0.68;100.00;99052.72;4159327;28;20480;-70
2023/03/28 01:57:20;;;;;;;5.13;1.65;;;;;;;-0.68;100.00;99050.00;4160155;28;20052;-71
2023/03/28 01:59:26;;;;;;;3.05;2.05;;;;;;;-0.66;100.00;99058.69;4159328;28;20048;-70
2023/03/28 02:01:35;;;;;;;6.88;1.30;;;;;;;-0.70;100.00;99054.13;4158621;28;20642;-70
2023/03/28 02:03:40;;;;;;;5.35;1.75;;;;;;;-0.72;100.00;99068.00;4158962;28;20060;-70
2023/03/28 02:05:42;;;;;;;4.25;1.60;;;;;;;-0.75;100.00;99051.44;4160049;28;20111;-70
2023/03/28 02:07:45;;;;;;;5.28;1.80;;;;;;;-0.80;100.00;99057.75;4159397;28;20124;-70
2023/03/28 02:09:46;;;;;;;;;;;;;;;-0.78;100.00;99060.19;4158944;28;20160;-71
2023/03/28 02:11:52;;;;;;;3.53;1.33;;;;;;;-0.81;100.00;99064.31;4159257;28;19909;-71
2023/03/28 02:13:58;;;;;;;3.00;1.42;;;;;;;-0.76;100.00;99068.84;4158460;28;20132;-70
2023/03/28 02:16:01;;;;;;;9.85;1.80;;;;;;;-0.74;100.00;99072.91;4159236;28;20053;-70
2023/03/28 02:18:10;;;;;;;4.88;1.25;;;;;;;-0.68;100.00;99068.22;4159123;28;20057;-71
2023/03/28 02:20:15;;;;;;;3.00;1.58;;;;;;;-0.59;100.00;99069.19;4158372;28;20048;-71
2023/03/28 02:22:21;;;;;;;10.50;1.77;;;;;;;-0.65;100.00;99068.47;4158834;28;20462;-71
2023/03/28 02:24:22;;;;;;;4.38;1.63;;;;;;;-0.64;100.00;99075.50;4158942;28;20041;-71
2023/03/28 02:26:24;;;;;;;4.40;1.20;;;;;;;-0.65;100.00;99076.63;4162788;28;20103;-71
2023/03/28 02:28:25;;;;;;;4.55;1.70;;;;;;;-0.58;100.00;99076.25;4160365;28;20201;-71
2023/03/28 02:30:26;;;;;;;3.53;1.25;;;;;;;-0.60;100.00;99081.16;4157572;28;20034;-71
2023/03/28 02:32:26;;;;;;;9.65;1.83;;;;;;;-0.57;100.00;99073.25;4161623;28;20054;-71
2023/03/28 02:34:26;;;;;;;4.07;1.33;;;;;;;-0.53;100.00;99069.94;4162347;28;20541;-71
2023/03/28 02:36:33;;;;;;;2.75;1.35;;;;;;;-0.49;100.00;99073.72;4163288;28;20057;-71
2023/03/28 02:38:45;;;;;;;2.35;1.40;;;;;;;-0.49;100.00;99082.69;4160954;28;20314;-71
2023/03/28 02:41:01;;;;;;;4.68;1.63;;;;;;;-0.45;100.00;99080.19;4162620;28;20044;-70
2023/03/28 02:43:18;;;;;;;8.60;1.92;;;;;;;-0.51;100.00;99079.41;4161821;28;20061;-70
2023/03/28 02:45:28;;;;;;;7.32;1.63;;;;;;;-0.45;100.00;99078.25;4162480;28;20051;-70
2023/03/28 02:47:43;;;;;;;5.60;2.10;;;;;;;-0.46;100.00;99090.25;4162036;28;20053;-70
2023/03/28 02:50:01;;;;;;;7.85;1.95;;;;;;;-0.42;100.00;99090.47;4162207;28;20584;-70
2023/03/28 02:52:35;;;;;;;4.55;1.77;;;;;;;-0.45;100.00;99091.84;4161080;28;20041;-71
2023/03/28 02:54:56;;;;;;;6.13;1.75;;;;;;;-0.38;100.00;99097.75;4161577;28;20065;-70
2023/03/28 02:57:11;;;;;;;4.40;1.80;;;;;;;-0.39;100.00;99089.91;4164336;28;20321;-70
2023/03/28 02:59:17;;;;;;;12.65;1.70;;;;;;;-0.38;100.00;99092.31;4161408;28;20045;-70
2023/03/28 03:01:17;;;;;;;4.05;1.80;;;;;;;-0.42;100.00;99093.19;4160821;28;20072;-70
2023/03/28 03:03:18;;;;;;;4.18;1.92;;;;;;;-0.45;100.00;99100.00;4161061;28;20057;-70
2023/03/28 03:05:20;;;;;;;10.13;2.47;;;;;;;-0.44;100.00;99098.09;4161091;28;20125;-70
2023/03/28 03:07:20;;;;;;;9.18;2.22;;;;;;;-0.48;100.00;99092.44;4162795;28;20053;-70
2023/03/28 03:09:21;;;;;;;8.55;1.83;;;;;;;-0.44;100.00;99101.63;4160872;28;20103;-70
2023/03/28 03:11:23;;;;;;;5.05;1.52;;;;;;;-0.50;100.00;99096.53;4162131;28;20088;-71
2023/03/28 03:13:24;;;;;;;9.75;1.52;;;;;;;-0.54;100.00;99090.06;4161711;28;20037;-71
2023/03/28 03:15:24;;;;;;;2.58;1.30;;;;;;;-0.57;100.00;99091.47;4164283;28;20029;-71
2023/03/28 03:17:25;;;;;;;4.07;1.83;;;;;;;-0.62;100.00;99089.63;4160535;28;20037;-71
2023/03/28 03:19:26;;;;;;;6.65;2.20;;;;;;;-0.68;100.00;99085.31;4161474;28;20061;-71
2023/03/28 03:21:26;;;;;;;2.70;1.42;;;;;;;-0.70;100.00;99078.56;4164898;28;20103;-71
2023/03/28 03:23:27;;;;;;;3.15;1.88;;;;;;;-0.69;100.00;99089.16;4159392;28;20034;-70
2023/03/28 03:25:30;;;;;;;8.13;1.90;;;;;;;-0.72;100.00;99075.34;4163135;28;20735;-71
2023/03/28 03:27:33;;;;;;;;;;;;;;;-0.68;100.00;99081.81;4166328;28;20398;-71
2023/03/28 03:29:33;;;;;;;7.05;1.92;;;;;;;-0.65;100.00;99089.41;4161036;28;19963;-71
2023/03/28 03:31:33;;;;;;;4.10;1.52;;;;;;;-0.67;100.00;99078.78;4161406;28;20076;-70
2023/03/28 03:33:34;;;;;;;6.35;1.80;;;;;;;-0.65;100.00;99079.34;4159770;28;20073;-70
2023/03/28 03:35:35;;;;;;;7.93;1.60;;;;;;;-0.66;100.00;99075.00;4162266;28;20045;-69
2023/03/28 03:37:36;;;;;;;6.38;2.58;;;;;;;-0.66;100.00;99077.72;4161884;28;20041;-70
2023/03/28 03:39:36;;;;;;;7.88;2.00;;;;;;;-0.64;100.00;99078.22;4161090;28;20072;-70
2023/03/28 03:41:36;;;;;;;6.57;1.63;;;;;;;-0.59;100.00;99085.50;4164751;28;20045;-70
2023/03/28 03:43:36;;;;;;;6.95;2.03;;;;;;;-0.48;100.00;99086.22;4160656;28;20168;-71
2023/03/28 03:45:39;;;;;;;6.10;1.95;;;;;;;-0.54;100.00;99093.59;4163096;28;20041;-70
2023/03/28 03:47:39;;;;;;;4.95;1.73;;;;;;;-0.60;100.00;99097.47;4160886;28;20511;-71
2023/03/28 03:49:39;;;;;;;3.47;2.03;;;;;;;-0.59;100.00;99097.19;4161062;28;20045;-71
2023/03/28 03:51:40;;;;;;;7.85;2.00;;;;;;;-0.61;100.00;99101.28;4160775;28;20041;-71
2023/03/28 03:53:40;;;;;;;7.10;2.30;;;;;;;-0.65;100.00;99098.34;4160088;28;20103;-71
2023/03/28 03:55:40;;;;;;;7.07;2.22;;;;;;;-0.63;100.00;99095.34;4161736;28;20091;-71
2023/03/28 03:57:41;;;;;;;8.10;2.30;;;;;;;-0.62;100.00;99103.19;4162272;28;20120;-71
2023/03/28 03:59:41;;;;;;;5.20;1.55;;;;;;;-0.69;100.00;99104.66;4160554;28;20496;-71
2023/03/28 04:01:42;;;;;;;4.47;1.70;;;;;;;-0.71;100.00;99101.41;4159575;28;20338;-71
2023/03/28 04:03:43;;;;;;;2.75;1.77;;;;;;;-0.72;100.00;99103.31;4160731;28;20132;-71
2023/03/28 04:05:43;;;;;;;8.27;2.08;;;;;;;-0.71;100.00;99115.00;4142600;28;20477;-70
2023/03/28 04:07:43;;;;;;;4.40;1.52;;;;;;;-0.68;100.00;99115.22;4162913;28;20053;-71
2023/03/28 04:09:44;;;;;;;10.98;2.55;;;;;;;-0.72;100.00;99110.66;4163994;28;20041;-71
2023/03/28 04:11:44;;;;;;;11.18;3.58;;;;;;;-0.74;100.00;99115.59;4160517;28;20092;-71
2023/03/28 04:13:44;;;;;;;14.88;3.60;;;;;;;-0.71;100.00;99115.81;4161286;28;20049;-71
2023/03/28 04:15:46;;;;;;;12.15;3.63;;;;;;;-0.66;100.00;99126.63;4165460;28;20389;-71
2023/03/28 04:17:48;;;;;;;8.70;3.08;;;;;;;-0.60;100.00;99122.75;4161502;28;20052;-71
2023/03/28 04:19:49;;;;;;;14.68;4.03;;;;;;;-0.59;100.00;99118.91;4160167;28;20055;-71
2023/03/28 04:21:51;;;;;;;8.73;2.70;;;;;;;-0.55;100.00;99123.81;4160765;28;20077;-71
2023/03/28 04:23:52;;;;;;;9.50;2.45;;;;;;;-0.53;100.00;99124.31;4161216;28;20042;-70
2023/03/28 04:25:56;;;;;;;12.02;2.40;;;;;;;-0.51;100.00;99120.19;4160727;28;20100;-71
2023/03/28 04:28:00;;;;;;;9.70;3.17;;;;;;;-0.55;100.00;99124.59;4160601;28;20076;-70
2023/03/28 04:30:00;;;;;;;8.57;2.67;;;;;;;-0.57;100.00;99126.81;4159416;28;20113;-70
2023/03/28 04:32:03;;;;;;;8.75;2.72;;;;;;;-0.57;100.00;99137.69;4160163;28;20084;-71
2023/03/28 04:34:05;;;;;;;8.20;2.67;;;;;;;-0.54;100.00;99145.25;4163316;28;20033;-71
2023/03/28 04:36:06;;;;;;;5.43;2.10;;;;;;;-0.56;100.00;99150.16;4160970;28;20074;-71
2023/03/28 04:38:08;;;;;;;8.57;3.05;;;;;;;-0.53;100.00;99148.78;4161618;28;20029;-71
2023/03/28 04:40:09;;;;;;;9.20;3.53;;;;;;;-0.55;100.00;99150.97;4161974;28;20042;-70
2023/03/28 04:42:09;;;;;;;12.45;3.58;;;;;;;-0.56;100.00;99150.16;4159260;28;20327;-70
2023/03/28 04:44:10;;;;;;;10.63;5.18;;;;;;;-0.58;100.00;99149.63;4161103;28;20503;-70
2023/03/28 04:46:10;;;;;;;3.83;2.25;;;;;;;-0.51;100.00;99149.28;4161884;28;20375;-70
2023/03/28 04:48:10;;;;;;;14.93;2.65;;;;;;;-0.48;100.00;99154.16;4159426;28;20507;-71
2023/03/28 04:50:11;;;;;;;8.98;2.47;;;;;;;-0.49;100.00;99150.63;4162267;28;20061;-71
2023/03/28 04:52:12;;;;;;;8.32;1.80;;;;;;;-0.45;100.00;99157.09;4160016;28;20037;-71
2023/03/28 04:54:12;;;;;;;6.68;1.85;;;;;;;-0.51;100.00;99146.56;4159620;28;20056;-71
2023/03/28 04:56:12;;;;;;;7.45;2.00;;;;;;;-0.52;100.00;99150.38;4159025;28;20029;-71
2023/03/28 04:58:13;;;;;;;6.78;2.47;;;;;;;-0.58;100.00;99155.91;4160141;28;20033;-71
2023/03/28 05:00:17;;;;;;;12.27;2.30;;;;;;;-0.66;100.00;99158.44;4161270;28;20061;-71
2023/03/28 05:02:17;;;;;;;8.38;2.10;;;;;;;-0.68;100.00;99166.03;4161478;28;20021;-71
2023/03/28 05:04:20;;;;;;;8.45;2.20;;;;;;;-0.67;100.00;99168.47;4160678;28;20060;-71
2023/03/28 05:06:20;;;;;;;5.15;1.77;;;;;;;-0.70;100.00;99171.78;4161381;28;20033;-70
2023/03/28 05:08:24;;;;;;;4.47;1.70;;;;;;;-0.68;100.00;99175.00;4159710;28;20041;-71
2023/03/28 05:10:25;;;;;;;7.68;2.05;;;;;;;-0.63;100.00;99180.41;4162478;28;20072;-71
2023/03/28 05:12:25;;;;;;;8.70;2.40;;;;;;;-0.64;100.00;99183.41;4162019;28;20091;-71
2023/03/28 05:14:25;;;;;;;6.80;2.35;;;;;;;-0.66;100.00;99186.44;4160057;28;20048;-71
2023/03/28 05:16:26;;;;;;;5.65;2.33;;;;;;;-0.62;100.00;99190.19;4158623;28;20443;-71
2023/03/28 05:18:26;;;;;;;7.00;2.10;;;;;;;-0.62;100.00;99192.88;4107833;28;20045;-71
2023/03/28 05:20:27;;;;;;;10.32;2.42;;;;;;;-0.65;100.00;99196.19;4160639;28;20037;-71
2023/03/28 05:22:28;;;;;;;9.70;2.20;;;;;;;-0.64;100.00;99197.81;4159202;28;20041;-71
2023/03/28 05:24:28;;;;;;;6.72;2.15;;;;;;;-0.60;100.00;99204.28;4159159;28;20037;-71
2023/03/28 05:26:29;;;;;;;6.07;2.55;;;;;;;-0.54;100.00;99201.53;4159569;28;20045;-71
2023/03/28 05:28:30;;;;;;;9.52;2.45;;;;;;;-0.53;100.00;99209.38;4163328;28;20103;-71
2023/03/28 05:30:30;;;;;;;14.10;2.53;;;;;;;-0.52;100.00;99197.41;4159349;28;20045;-71
2023/03/28 05:32:31;;;;;;;4.22;1.95;;;;;;;-0.51;100.00;99201.75;4160087;28;20501;-71
2023/03/28 05:34:33;;;;;;;3.63;1.60;;;;;;;-0.53;100.00;99214.00;4158526;28;20041;-71
2023/03/28 05:36:33;;;;;;;10.00;2.17;;;;;;;-0.55;100.00;99211.59;4162065;28;20053;-71
2023/03/28 05:38:33;;;;;;;7.90;2.00;;;;;;;-0.49;100.00;99213.16;4162732;28;20610;-71
2023/03/28 05:40:35;;;;;;;4.95;2.13;;;;;;;-0.49;100.00;99213.16;4158338;28;20081;-71
2023/03/28 05:42:36;;;;;;;8.90;1.80;;;;;;;-0.36;100.00;99226.06;4160144;28;20080;-71
2023/03/28 05:44:37;;;;;;;5.90;1.98;;;;;;;-0.38;100.00;99224.75;4160957;28;20099;-71
2023/03/28 05:46:37;;;;;;;4.80;1.60;;;;;;;-0.31;100.00;99227.94;4158299;28;20466;-71
2023/03/28 05:48:37;;;;;;;7.38;1.98;;;;;;;-0.31;100.00;99228.75;4157830;28;20470;-71
2023/03/28 05:50:38;;;;;;;10.55;2.22;;;;;;;-0.30;100.00;99234.97;4162500;28;20040;-71
2023/03/28 05:52:38;;;;;;;10.02;2.20;;;;;;;-0.33;100.00;99238.28;4161812;28;20054;-71
2023/03/28 05:54:38;;;;;;;6.70;2.10;;;;;;;-0.30;100.00;99237.69;4162730;28;20459;-71
2023/03/28 05:56:39;;;;;;;10.57;2.22;;;;;;;-0.23;100.00;99235.47;4161780;28;20037;-71
2023/03/28 05:58:39;;;;;;;8.35;2.38;;;;;;;-0.20;100.00;99243.03;4162088;28;20459;-71
2023/03/28 06:00:41;;;;;;;6.65;2.00;;;;;;;-0.20;100.00;99253.09;4159760;28;20478;-71
2023/03/28 06:02:42;;;;;;;14.30;2.90;;;;;;;-0.17;100.00;99247.06;4157220;28;20129;-71
2023/03/28 06:04:43;;;;;;;4.05;1.80;;;;;;;-0.19;100.00;99247.38;4141976;28;20101;-71
2023/03/28 06:06:44;;;;;;;11.73;2.25;;;;;;;-0.21;100.00;99254.19;4162549;28;20043;-70
2023/03/28 06:08:44;;;;;;;7.43;1.65;;;;;;;-0.21;100.00;99260.44;4161537;28;20148;-71
2023/03/28 06:10:45;;;;;;;12.13;3.03;;;;;;;-0.17;100.00;99261.47;4162166;28;20042;-71
2023/03/28 06:12:45;;;;;;;8.73;3.30;;;;;;;-0.10;100.00;99259.22;4162523;28;20056;-71
2023/03/28 06:14:46;;;;;;;18.40;3.13;;;;;;;-0.11;100.00;99263.06;4163195;28;20042;-70
2023/03/28 06:16:46;;;;;;;9.38;3.45;;;;;;;-0.04;100.00;99263.53;4161299;28;20615;-70
2023/03/28 06:18:46;;;;;;;3.70;1.85;;;;;;;-0.07;100.00;99263.31;4163221;28;20073;-70
2023/03/28 06:20:47;;;;;;;4.47;2.00;;;;;;;-0.04;100.00;99260.00;4162830;28;20029;-70
2023/03/28 06:22:47;;;;;;;11.98;2.28;;;;;;;0.01;100.00;99264.59;4164317;28;20387;-70
2023/03/28 06:24:47;;;;;;;8.55;3.10;;;;;;;-0.05;100.00;99259.19;4162894;28;20580;-71
2023/03/28 06:26:48;;;;;;;5.25;2.20;;;;;;;-0.02;100.00;99260.50;4162334;28;20459;-71
2023/03/28 06:28:48;;;;;;;4.07;1.90;;;;;;;-0.02;100.00;99266.75;4163824;28;20046;-71
2023/03/28 06:30:49;;;;;;;7.22;2.13;;;;;;;0.04;100.00;99272.97;4161513;28;20042;-70
2023/03/28 06:32:49;;;;;;;9.88;2.35;;;;;;;0.07;100.00;99272.38;4163980;28;20472;-71
2023/03/28 06:34:50;;;;;;;7.57;1.80;;;;;;;0.12;100.00;99276.97;4162343;28;20084;-71
2023/03/28 06:36:50;;;;;;;4.47;2.15;;;;;;;0.16;100.00;99278.00;4161063;28;20551;-71
2023/03/28 06:38:52;;;;;;;18.45;2.15;;;;;;;0.17;100.00;99274.19;4165762;28;20128;-71
2023/03/28 06:40:52;;;;;;;6.27;2.10;;;;;;;0.19;100.00;99278.22;4161942;28;20029;-71
2023/03/28 06:42:52;;;;;;;8.85;2.58;;;;;;;0.30;100.00;99287.06;4160654;28;20033;-71
2023/03/28 06:44:53;;;;;;;7.25;2.10;;;;;;;0.24;100.00;99277.34;4163928;28;20045;-71
2023/03/28 06:46:53;;;;;;;6.40;1.92;;;;;;;0.25;100.00;99285.25;4165293;28;20139;-71
2023/03/28 06:48:53;;;;;;;7.22;1.65;;;;;;;0.28;100.00;99284.66;4161413;28;20452;-71
2023/03/28 06:50:54;;;;;;;15.45;2.90;;;;;;;0.35;100.00;99287.03;4160567;28;20049;-71
2023/03/28 06:52:54;;;;;;;7.95;1.90;;;;;;;0.34;100.00;99290.84;4161739;28;20029;-71
2023/03/28 06:54:55;;;;;;;8.07;2.33;;;;;;;0.34;100.00;99306.38;4161323;28;20055;-71
2023/03/28 06:56:55;;;;;;;5.82;2.78;;;;;;;0.34;100.00;99309.91;4165684;28;20060;-71
2023/03/28 06:58:55;;;;;;;4.60;2.20;;;;;;;0.32;100.00;99309.38;4162679;28;20048;-71
2023/03/28 07:00:58;;;;;;;17.25;2.95;;;;;;;0.34;100.00;99314.53;4161003;28;20042;-71
2023/03/28 07:02:58;;;;;;;8.18;2.08;;;;;;;0.28;100.00;99321.94;4160554;28;20148;-71
2023/03/28 07:04:59;;;;;;;6.90;2.60;;;;;;;0.36;100.00;99324.03;4161501;28;20073;-71
2023/03/28 07:06:59;;;;;;;16.77;5.85;;;;;;;0.40;100.00;99327.78;4162385;28;20045;-71
2023/03/28 07:09:00;;;;;;;9.90;3.78;;;;;;;0.40;100.00;99338.69;4161379;28;20077;-71
2023/03/28 07:11:01;;;;;;;17.42;3.22;;;;;;;0.43;100.00;99335.38;4160875;28;20049;-71
2023/03/28 07:13:01;;;;;;;10.98;4.65;;;;;;;0.49;100.00;99336.94;4175911;28;20052;-71
2023/03/28 07:15:01;;;;;;;17.27;5.75;;;;;;;0.49;100.00;99333.41;4161998;28;20080;-71
2023/03/28 07:17:01;;;;;;;17.48;5.05;;;;;;;0.57;100.00;99344.44;4161276;28;20365;-71
2023/03/28 07:19:02;;;;;;;17.55;5.30;;;;;;;0.64;100.00;99343.28;4161316;28;20057;-71
2023/03/28 07:21:17;;;;;;;15.38;4.90;;;;;;;0.60;100.00;99336.81;4161200;28;20115;-71
2023/03/28 07:23:17;;;;;;;11.18;2.65;;;;;;;0.60;100.00;99350.44;4160197;28;20050;-71
2023/03/28 07:25:18;;;;;;;11.35;3.28;;;;;;;0.57;100.00;99340.91;4161353;28;20046;-71
2023/03/28 07:27:19;;;;;;;6.65;2.20;;;;;;;0.70;100.00;99350.31;4160649;28;20377;-71
2023/03/28 07:29:19;;;;;;;10.38;2.97;;;;;;;0.75;100.00;99363.88;4163507;28;20500;-71
2023/03/28 07:31:20;;;;;;;5.82;2.42;;;;;;;0.80;100.00;99361.06;4161615;28;20061;-71
2023/03/28 07:33:20;;;;;;;6.47;1.90;;;;;;;0.80;100.00;99361.88;4160920;28;20487;-71
2023/03/28 07:35:20;;;;;;;6.00;2.28;;;;;;;0.93;100.00;99368.53;4161472;28;20045;-71
2023/03/28 07:37:21;;;;;;;11.05;3.25;;;;;;;0.88;100.00;99375.97;4160601;28;20061;-71
2023/03/28 07:39:21;;;;;;;5.95;2.85;;;;;;;0.92;100.00;99369.66;4160410;28;20041;-71
2023/03/28 07:41:21;;;;;;;11.05;2.75;;;;;;;0.99;100.00;99369.25;4161192;28;20370;-71
2023/03/28 07:43:22;;;;;;;5.05;2.20;;;;;;;1.00;100.00;99381.81;4159805;28;20405;-71
2023/03/28 07:45:22;;;;;;;10.77;3.22;;;;;;;0.99;100.00;99370.06;4160131;28;20045;-71
2023/03/28 07:47:22;;;;;;;8.02;2.95;;;;;;;1.07;100.00;99383.03;4161821;28;20068;-71
2023/03/28 07:49:23;;;;;;;8.82;2.40;;;;;;;1.15;100.00;99383.50;4162072;28;20033;-71
2023/03/28 07:51:23;;;;;;;6.35;2.13;;;;;;;1.09;100.00;99380.03;4159811;28;20120;-71
2023/03/28 07:53:24;;;;;;;10.48;2.58;;;;;;;1.08;100.00;99381.97;4160874;28;20054;-71
2023/03/28 07:55:26;;;;;;;10.27;3.25;;;;;;;1.13;100.00;99387.31;4160585;28;20045;-71
2023/03/28 07:57:27;;;;;;;6.78;2.20;;;;;;;1.09;100.00;99388.22;4160092;28;20154;-71
2023/03/28 07:59:27;;;;;;;10.38;3.13;;;;;;;1.15;100.00;99405.28;4161142;28;20569;-71
2023/03/28 08:01:27;;;;;;;24.42;2.70;;;;;;;1.13;100.00;99402.88;4164420;28;20429;-71
2023/03/28 08:03:28;;;;;;;21.27;3.22;;;;;;;1.06;100.00;99396.97;4160028;28;20048;-71
2023/03/28 08:05:28;;;;;;;6.55;2.72;;;;;;;1.10;100.00;99403.47;4147094;28;20124;-71
2023/03/28 08:07:28;;;;;;;8.00;2.13;;;;;;;1.32;100.00;99402.88;4160918;28;20147;-71
2023/03/28 08:09:28;;;;;;;4.35;1.85;;;;;;;1.46;100.00;99403.75;4175734;28;20557;-71
2023/03/28 08:11:29;;;;;;;6.05;2.38;;;;;;;1.57;100.00;99398.97;4159426;28;20092;-71
2023/03/28 08:13:30;;;;;;;13.88;2.00;;;;;;;1.58;100.00;99403.34;4159854;28;20049;-71
2023/03/28 08:15:30;;;;;;;6.40;2.45;;;;;;;1.63;100.00;99411.41;4161720;28;20635;-71
2023/03/28 08:17:31;;;;;;;7.20;2.70;;;;;;;1.58;100.00;99401.41;4160225;28;20046;-71
2023/03/28 08:19:31;;;;;;;3.13;1.70;;;;;;;1.67;100.00;99402.34;4160416;28;20045;-71
2023/03/28 08:21:31;;;;;;;9.60;2.75;;;;;;;1.77;100.00;99406.03;4160314;28;20041;-71
2023/03/28 08:23:31;;;;;;;8.65;2.65;;;;;;;1.61;100.00;99414.44;4159459;28;20084;-71
2023/03/28 08:25:32;;;;;;;8.23;2.30;;;;;;;1.59;100.00;99405.75;4159979;28;20046;-71
2023/03/28 08:27:33;;;;;;;6.00;2.50;;;;;;;1.67;100.00;99404.28;4159811;28;20038;-71
2023/03/28 08:29:33;;;;;;;5.43;2.08;;;;;;;1.71;100.00;99413.47;4158953;28;20417;-71
2023/03/28 08:31:33;;;;;;;10.52;2.33;;;;;;;1.85;100.00;99424.47;4160406;28;20045;-71
2023/03/28 08:33:34;;;;;;;10.55;2.17;;;;;;;1.81;99.73;99413.31;4159460;28;20207;-71
2023/03/28 08:35:34;;;;;;;10.38;2.47;;;;;;;1.90;100.00;99413.44;4159924;28;20036;-71
2023/03/28 08:37:35;;;;;;;16.90;2.70;;;;;;;1.90;100.00;99424.34;4160814;28;20046;-71
2023/03/28 08:39:36;;;;;;;11.02;3.38;;;;;;;1.90;100.00;99421.63;4159226;28;20049;-71
2023/03/28 08:41:58;;;;;;;9.07;2.05;;;;;;;1.75;100.00;99414.53;4166703;28;20080;-71
2023/03/28 08:44:22;;;;;;;9.32;3.05;;;;;;;1.80;100.00;99421.78;4162965;28;20458;-71
2023/03/28 08:46:26;;;;;;;11.95;2.42;;;;;;;1.89;100.00;99420.00;4155563;28;20091;-71
2023/03/28 08:48:39;;;;;;;4.60;1.90;;;;;;;1.85;100.00;99417.06;4160610;28;20136;-70
2023/03/28 08:50:49;;;;;;;6.32;2.15;;;;;;;1.93;99.97;99421.06;4160327;28;20061;-71
2023/03/28 08:52:50;;;;;;;17.60;3.08;;;;;;;2.00;100.00;99421.47;4158872;28;20096;-71
2023/03/28 08:55:00;;;;;;;8.30;2.45;;;;;;;1.94;100.00;99419.94;4163389;28;20037;-71
2023/03/28 08:57:03;;;;;;;9.93;2.75;;;;;;;2.06;99.66;99425.72;4159480;28;20053;-71
2023/03/28 08:59:06;;;;;;;8.18;2.78;;;;;;;2.09;98.77;99418.88;4160146;28;20507;-71
2023/03/28 09:01:09;;;;;;;7.85;2.60;;;;;;;2.22;99.94;99421.63;4159482;28;20088;-71
2023/03/28 09:03:15;;;;;;;8.60;4.30;;;;;;;2.23;99.70;99422.44;4159407;28;20259;-71
2023/03/28 09:05:21;;;;;;;12.07;3.10;;;;;;;2.23;100.00;99420.53;4176000;28;20156;-71
2023/03/28 09:07:49;;;;;;;19.30;6.45;;;;;;;2.37;96.87;99417.81;4161678;28;20461;-71
2023/03/28 09:10:06;;;;;;;18.92;5.97;;;;;;;2.43;97.13;99424.81;4159907;28;20041;-71
2023/03/28 09:12:25;;;;;;;8.68;2.53;;;;;;;2.44;97.41;99415.50;4158035;28;20045;-71
2023/03/28 09:14:40;;;;;;;5.20;2.30;;;;;;;2.53;96.15;99416.41;4158754;28;20553;-71
2023/03/28 09:17:01;;;;;;;11.27;3.05;;;;;;;2.63;95.70;99423.59;4164550;28;20094;-71
2023/03/28 09:19:14;;;;;;;17.83;5.45;;;;;;;2.63;97.09;99423.59;4177786;28;20164;-71
2023/03/28 09:21:55;;;;;;;11.75;3.60;;;;;;;2.60;96.31;99431.63;4162162;28;20083;-71
2023/03/28 09:24:25;;;;;;;9.40;3.05;;;;;;;2.68;94.98;99433.66;4162513;28;20782;-72
2023/03/28 09:26:38;;;;;;;9.32;3.03;;;;;;;2.53;94.46;99442.94;4159657;28;20523;-72
2023/03/28 09:28:38;;;;;;;9.40;2.13;;;;;;;2.68;93.32;99431.72;4159785;28;20385;-71
2023/03/28 09:30:50;;;;;;;7.18;2.50;;;;;;;2.50;94.95;99425.22;4165164;28;20080;-71
2023/03/28 09:32:57;;;;;;;12.77;3.88;;;;;;;2.82;96.65;99429.00;4158807;28;20049;-71
2023/03/28 09:34:58;;;;;;;6.03;2.50;;;;;;;2.96;92.83;99427.06;4159991;28;20049;-71
2023/03/28 09:37:04;;;;;;;8.60;2.30;;;;;;;3.22;90.66;99423.78;4159401;28;20042;-72
2023/03/28 09:39:15;;;;;;;3.33;1.67;;;;;;;3.27;90.77;99421.75;4160448;28;20053;-71